Time;durP1;ratioP1;P1;durP2;ratioP2;P2;SDS_P1;SDS_P2;PMS_P1;PMS_P2;Temp;Humidity;BMP_temperature;BMP_pressure;BME280_temperature;BME280_humidity;BME280_pressure;Samples;Min_cycle;Max_cycle;Signal;HPM_P1;HPM_P2
2021/05/31 00:02:14;;;;;;;14.70;11.25;;;;;;;15.55;62.45;101725.00;4953700;28;20061;-43
2021/05/31 00:04:44;;;;;;;14.93;9.73;;;;;;;15.51;62.64;101712.94;4972045;28;20057;-45
2021/05/31 00:07:19;;;;;;;15.38;11.38;;;;;;;15.43;62.76;101711.06;4971835;28;20567;-47
2021/05/31 00:09:49;;;;;;;13.88;10.90;;;;;;;15.42;62.87;101712.25;4971705;28;20052;-43
2021/05/31 00:12:17;;;;;;;15.80;9.77;;;;;;;15.38;62.77;101714.91;4971075;28;20091;-44
2021/05/31 00:14:45;;;;;;;14.10;11.38;;;;;;;15.37;62.82;101704.94;4972441;28;20086;-43
2021/05/31 00:17:12;;;;;;;13.88;10.85;;;;;;;15.31;63.04;101702.72;4971220;28;20051;-43
2021/05/31 00:19:40;;;;;;;14.27;11.80;;;;;;;15.25;63.20;101705.78;4971917;28;20125;-43
2021/05/31 00:22:07;;;;;;;13.75;9.68;;;;;;;15.18;63.33;101705.56;4971470;28;20134;-43
2021/05/31 00:24:34;;;;;;;14.75;10.07;;;;;;;15.15;63.52;101708.25;4971841;28;20120;-45
2021/05/31 00:27:02;;;;;;;13.07;10.18;;;;;;;15.17;63.67;101703.94;4979648;28;20061;-43
2021/05/31 00:29:28;;;;;;;14.38;9.88;;;;;;;15.14;63.57;101695.47;4978100;28;20129;-44
2021/05/31 00:31:56;;;;;;;15.63;11.40;;;;;;;15.11;63.62;101694.22;4972485;28;20089;-48
2021/05/31 00:34:25;;;;;;;14.40;11.13;;;;;;;15.06;63.64;101694.44;4971461;28;20073;-42
2021/05/31 00:36:52;;;;;;;15.13;10.77;;;;;;;15.03;63.73;101686.78;4968494;28;20142;-45
2021/05/31 00:39:21;;;;;;;14.25;10.23;;;;;;;14.99;63.96;101685.88;4971778;28;20047;-48
2021/05/31 00:41:49;;;;;;;13.90;10.48;;;;;;;15.00;63.87;101686.69;4964697;28;20476;-44
2021/05/31 00:44:17;;;;;;;16.27;10.27;;;;;;;15.01;63.82;101691.91;4970707;28;20038;-43
2021/05/31 00:46:45;;;;;;;15.00;10.95;;;;;;;14.98;63.89;101684.25;4967629;28;20137;-42
2021/05/31 00:49:14;;;;;;;13.40;11.18;;;;;;;14.98;64.00;101680.66;4967211;28;20043;-43
2021/05/31 00:51:41;;;;;;;18.80;10.75;;;;;;;14.95;63.90;101676.59;4966372;28;20069;-45
2021/05/31 00:54:08;;;;;;;11.85;10.45;;;;;;;14.94;64.02;101674.13;4965827;28;20449;-44
2021/05/31 00:56:35;;;;;;;13.73;10.80;;;;;;;14.90;64.09;101674.06;4965273;28;20049;-45
2021/05/31 00:59:02;;;;;;;14.10;10.77;;;;;;;14.88;64.18;101670.00;4965992;28;20069;-48
2021/05/31 01:01:29;;;;;;;13.25;10.23;;;;;;;14.86;64.11;101663.94;4966444;28;20581;-46
2021/05/31 01:03:55;;;;;;;12.85;10.13;;;;;;;14.83;64.45;101659.06;4966119;28;20051;-43
2021/05/31 01:06:27;;;;;;;12.35;10.25;;;;;;;14.80;64.78;101659.78;4966796;28;20081;-45
2021/05/31 01:09:05;;;;;;;14.57;10.68;;;;;;;14.81;64.39;101662.22;4964961;28;20126;-42
2021/05/31 01:11:44;;;;;;;11.82;10.15;;;;;;;14.75;64.69;101657.22;4967347;28;20424;-46
2021/05/31 01:14:18;;;;;;;15.45;10.88;;;;;;;14.74;64.54;101650.03;4969188;28;20055;-44
2021/05/31 01:16:56;;;;;;;14.57;10.98;;;;;;;14.68;64.86;101651.44;4970644;28;20110;-43
2021/05/31 01:19:48;;;;;;;12.27;9.10;;;;;;;14.64;65.04;101649.34;4971161;28;20069;-48
2021/05/31 01:22:20;;;;;;;10.68;9.52;;;;;;;14.61;65.04;101649.25;4967658;28;20126;-47
2021/05/31 01:24:50;;;;;;;12.25;9.88;;;;;;;14.55;65.08;101639.50;4973774;28;20038;-44
2021/05/31 01:27:20;;;;;;;10.35;9.25;;;;;;;14.49;65.51;101641.69;4969416;28;20069;-45
2021/05/31 01:29:55;;;;;;;11.65;9.52;;;;;;;14.48;65.50;101636.50;4974673;28;20105;-48
2021/05/31 01:32:45;;;;;;;14.32;10.35;;;;;;;14.42;65.46;101633.13;4971915;28;20055;-47
2021/05/31 01:35:23;;;;;;;15.93;9.15;;;;;;;14.36;65.46;101628.13;4953401;28;20524;-45
2021/05/31 01:37:51;;;;;;;12.85;9.00;;;;;;;14.39;65.53;101633.00;4971786;28;20046;-44
2021/05/31 01:40:22;;;;;;;13.55;8.93;;;;;;;14.38;65.48;101632.19;4974316;28;20043;-43
2021/05/31 01:42:51;;;;;;;12.15;8.70;;;;;;;14.30;65.60;101619.16;4957441;28;20094;-44
2021/05/31 01:45:20;;;;;;;11.60;8.82;;;;;;;14.25;66.13;101626.94;4974746;28;20121;-44
2021/05/31 01:47:47;;;;;;;13.43;9.60;;;;;;;14.22;65.83;101622.06;4966664;28;20054;-45
2021/05/31 01:50:15;;;;;;;13.10;9.80;;;;;;;14.19;66.11;101620.00;4974164;28;20082;-44
2021/05/31 01:52:45;;;;;;;10.15;8.75;;;;;;;14.16;66.24;101624.28;4974444;28;20774;-45
2021/05/31 01:55:14;;;;;;;12.88;9.43;;;;;;;14.17;66.18;101622.28;4956863;28;20061;-46
2021/05/31 01:57:43;;;;;;;13.80;10.00;;;;;;;14.15;66.14;101617.06;4974426;28;20042;-43
2021/05/31 02:00:11;;;;;;;12.55;9.95;;;;;;;14.09;66.51;101615.69;4974400;28;20492;-44
2021/05/31 02:02:50;;;;;;;13.48;9.75;;;;;;;14.09;66.32;101609.28;4974621;28;20046;-44
2021/05/31 02:05:17;;;;;;;13.73;9.80;;;;;;;14.14;66.52;101609.09;4974841;28;20142;-45
2021/05/31 02:07:44;;;;;;;13.18;9.73;;;;;;;14.14;66.38;101609.09;4974507;28;20051;-45
2021/05/31 02:10:13;;;;;;;16.70;10.80;;;;;;;14.08;66.69;101610.47;4972923;28;20062;-43
2021/05/31 02:12:40;;;;;;;16.23;11.02;;;;;;;14.04;66.66;101605.59;4973785;28;20137;-43
2021/05/31 02:15:09;;;;;;;12.80;9.77;;;;;;;13.99;66.76;101603.03;4973001;28;20050;-43
2021/05/31 02:17:54;;;;;;;13.32;9.93;;;;;;;13.95;67.11;101599.31;4974491;28;20126;-43
2021/05/31 02:20:27;;;;;;;12.52;9.93;;;;;;;13.97;66.83;101599.78;4971898;28;20047;-43
2021/05/31 02:23:01;;;;;;;12.88;10.82;;;;;;;13.91;67.19;101594.78;4975176;28;20051;-45
2021/05/31 02:25:27;;;;;;;12.82;9.45;;;;;;;13.93;66.78;101596.06;4969690;28;20432;-44
2021/05/31 02:27:57;;;;;;;13.55;9.80;;;;;;;13.87;66.94;101594.66;4980545;28;20484;-45
2021/05/31 02:30:25;;;;;;;11.57;9.38;;;;;;;13.83;67.05;101596.53;4974840;28;20142;-43
2021/05/31 02:33:22;;;;;;;10.07;8.98;;;;;;;13.79;67.02;101592.00;4973739;28;20580;-44
2021/05/31 02:35:52;;;;;;;12.30;9.32;;;;;;;13.79;67.05;101595.59;4974220;28;20051;-43
2021/05/31 02:38:19;;;;;;;11.73;8.63;;;;;;;13.79;66.90;101587.22;4973972;28;20047;-47
2021/05/31 02:40:46;;;;;;;9.63;8.63;;;;;;;13.79;66.90;101580.88;4973136;28;20669;-43
2021/05/31 02:43:12;;;;;;;11.73;8.25;;;;;;;13.78;66.78;101585.63;4973814;28;20130;-43
2021/05/31 02:45:39;;;;;;;9.68;8.25;;;;;;;13.78;66.84;101585.63;4972471;28;20086;-45
2021/05/31 02:48:07;;;;;;;8.85;7.68;;;;;;;13.77;66.85;101578.41;4973704;28;20082;-43
2021/05/31 02:50:35;;;;;;;10.90;7.70;;;;;;;13.71;66.76;101588.19;4973633;28;20051;-43
2021/05/31 02:53:03;;;;;;;8.88;7.32;;;;;;;13.69;66.86;101581.31;4973322;28;20125;-42
2021/05/31 02:55:32;;;;;;;12.95;8.38;;;;;;;13.68;66.91;101574.13;4972552;28;20053;-45
2021/05/31 02:57:59;;;;;;;10.82;8.40;;;;;;;13.63;67.14;101577.97;4970522;28;20055;-48
2021/05/31 03:00:27;;;;;;;11.77;7.88;;;;;;;13.61;67.18;101571.13;4973312;28;20487;-44
2021/05/31 03:02:56;;;;;;;13.55;9.75;;;;;;;13.60;67.19;101575.06;4973095;28;20500;-43
2021/05/31 03:05:28;;;;;;;12.52;10.20;;;;;;;13.57;67.19;101565.44;4973392;28;20050;-50
2021/05/31 03:07:56;;;;;;;14.52;10.50;;;;;;;13.52;67.21;101571.22;4971832;28;20093;-49
2021/05/31 03:10:24;;;;;;;14.90;11.80;;;;;;;13.48;67.67;101570.25;4973039;28;20138;-45
2021/05/31 03:12:51;;;;;;;17.75;11.70;;;;;;;13.50;67.54;101567.97;4973324;28;20481;-45
2021/05/31 03:15:19;;;;;;;19.52;12.07;;;;;;;13.49;67.73;101571.09;4973048;28;20105;-42
2021/05/31 03:17:47;;;;;;;16.13;13.02;;;;;;;13.48;67.93;101567.47;4972698;28;20078;-47
2021/05/31 03:20:19;;;;;;;17.77;13.93;;;;;;;13.43;67.86;101562.16;4972973;28;20504;-43
2021/05/31 03:22:48;;;;;;;15.75;12.00;;;;;;;13.41;68.15;101565.28;4974468;28;20039;-47
2021/05/31 03:25:15;;;;;;;18.08;12.98;;;;;;;13.41;68.06;101558.91;4976909;28;20137;-43
2021/05/31 03:27:42;;;;;;;16.90;14.23;;;;;;;13.41;68.27;101558.91;4988135;28;20121;-43
2021/05/31 03:30:12;;;;;;;17.30;12.40;;;;;;;13.41;68.32;101553.34;4972866;28;20047;-44
2021/05/31 03:32:39;;;;;;;14.77;12.07;;;;;;;13.36;68.33;101559.94;4972701;28;20496;-45
2021/05/31 03:35:09;;;;;;;18.30;12.65;;;;;;;13.36;68.48;101559.13;4973225;28;20066;-45
2021/05/31 03:37:37;;;;;;;14.68;11.52;;;;;;;13.34;68.47;101558.66;4953351;28;20047;-42
2021/05/31 03:40:04;;;;;;;16.50;12.55;;;;;;;13.31;68.58;101559.34;4971102;28;20139;-46
2021/05/31 03:42:31;;;;;;;16.40;12.60;;;;;;;13.31;68.63;101554.59;4972924;28;20050;-43
2021/05/31 03:44:58;;;;;;;15.57;12.63;;;;;;;13.31;68.66;101551.81;4972509;28;20054;-42
2021/05/31 03:47:25;;;;;;;20.02;13.82;;;;;;;13.29;68.74;101554.09;4972156;28;20531;-45
2021/05/31 03:49:51;;;;;;;15.73;12.48;;;;;;;13.25;68.95;101544.03;4972693;28;20053;-43
2021/05/31 03:52:18;;;;;;;15.82;11.65;;;;;;;13.24;68.94;101547.94;4972143;28;20086;-44
2021/05/31 03:54:45;;;;;;;13.77;10.70;;;;;;;13.15;69.07;101538.91;4972430;28;20070;-45
2021/05/31 03:57:12;;;;;;;15.05;11.18;;;;;;;13.13;68.97;101538.44;4972121;28;20141;-44
2021/05/31 03:59:39;;;;;;;11.40;9.93;;;;;;;13.12;69.19;101540.41;4972716;28;20042;-43
2021/05/31 04:02:06;;;;;;;14.15;10.68;;;;;;;13.17;68.98;101536.59;4971766;28;20058;-44
2021/05/31 04:04:45;;;;;;;11.23;10.00;;;;;;;13.19;68.85;101529.53;4972593;28;20047;-43
2021/05/31 04:12:46;;;;;;;15.30;10.88;;;;;;;13.23;68.67;101529.66;4972009;28;20081;-44
2021/05/31 04:15:13;;;;;;;14.25;10.38;;;;;;;13.23;68.59;101524.91;4954238;28;20058;-43
2021/05/31 04:17:40;;;;;;;16.20;11.07;;;;;;;13.27;68.41;101525.03;4971774;28;20078;-47
2021/05/31 04:20:09;;;;;;;16.55;9.38;;;;;;;13.28;68.53;101519.13;4971481;28;20606;-44
2021/05/31 04:22:35;;;;;;;11.63;9.52;;;;;;;13.33;68.36;101518.09;4981110;28;20096;-45
2021/05/31 04:25:04;;;;;;;12.05;9.43;;;;;;;13.28;68.34;101510.78;4973411;28;20074;-42
2021/05/31 04:27:31;;;;;;;12.05;9.57;;;;;;;13.29;68.40;101512.41;4973046;28;20081;-45
2021/05/31 04:29:57;;;;;;;16.42;9.93;;;;;;;13.24;68.70;101509.03;4971766;28;20142;-43
2021/05/31 04:32:25;;;;;;;10.48;8.90;;;;;;;13.23;68.84;101515.75;4971113;28;20042;-45
2021/05/31 04:34:52;;;;;;;10.13;8.52;;;;;;;13.25;68.85;101519.00;4972560;28;20143;-44
2021/05/31 04:37:19;;;;;;;11.15;9.52;;;;;;;13.23;68.75;101511.00;4972146;28;20053;-44
2021/05/31 04:39:46;;;;;;;10.52;8.68;;;;;;;13.25;68.78;101514.25;4971353;28;20053;-45
2021/05/31 04:42:12;;;;;;;10.18;7.65;;;;;;;13.26;69.06;101517.84;4971739;28;20133;-43
2021/05/31 04:44:39;;;;;;;10.30;8.43;;;;;;;13.25;69.03;101510.66;4971919;28;20134;-48
2021/05/31 04:47:07;;;;;;;9.15;8.10;;;;;;;13.22;69.09;101522.47;4971133;28;20130;-43
2021/05/31 04:49:34;;;;;;;10.45;8.50;;;;;;;13.24;69.20;101514.59;4972246;28;20047;-42
2021/05/31 04:52:02;;;;;;;10.70;8.13;;;;;;;13.26;69.03;101515.06;4971339;28;20039;-42
2021/05/31 04:54:29;;;;;;;9.30;7.07;;;;;;;13.31;68.86;101525.97;4971599;28;20046;-44
2021/05/31 04:56:56;;;;;;;9.82;7.05;;;;;;;13.30;68.88;101514.03;4971370;28;20049;-47
2021/05/31 04:59:23;;;;;;;12.82;6.95;;;;;;;13.30;68.95;101513.22;4971292;28;20086;-42
2021/05/31 05:01:49;;;;;;;7.63;6.93;;;;;;;13.36;68.92;101511.84;4971358;28;20496;-47
2021/05/31 05:04:16;;;;;;;7.47;6.63;;;;;;;13.39;68.86;101511.97;4972178;28;20082;-46
2021/05/31 05:06:43;;;;;;;10.95;7.13;;;;;;;13.42;68.96;101502.13;4971395;28;20070;-47
2021/05/31 05:09:10;;;;;;;9.43;7.65;;;;;;;13.45;68.96;101512.53;4954208;28;20042;-43
2021/05/31 05:11:37;;;;;;;9.50;7.57;;;;;;;13.45;68.91;101508.97;4970317;28;20074;-44
2021/05/31 05:14:04;;;;;;;8.68;6.78;;;;;;;13.44;69.21;101508.16;4973359;28;20131;-45
2021/05/31 05:16:31;;;;;;;9.63;7.75;;;;;;;13.46;69.01;101505.81;4974428;28;20135;-45
2021/05/31 05:18:58;;;;;;;8.82;7.45;;;;;;;13.53;69.12;101505.25;4975203;28;20055;-44
2021/05/31 05:21:25;;;;;;;9.93;7.72;;;;;;;13.59;68.96;101501.88;4974003;28;20050;-47
2021/05/31 05:23:53;;;;;;;8.45;7.13;;;;;;;13.63;69.06;101499.25;4974698;28;20055;-43
2021/05/31 05:26:20;;;;;;;7.60;6.70;;;;;;;13.62;69.13;101498.41;4975337;28;20125;-44
2021/05/31 05:28:48;;;;;;;10.70;7.50;;;;;;;13.64;69.16;101489.72;4980960;28;20085;-45
2021/05/31 05:31:14;;;;;;;15.55;7.70;;;;;;;13.60;69.52;101484.06;4975399;28;20101;-42
2021/05/31 05:33:42;;;;;;;8.25;6.30;;;;;;;13.63;69.74;101486.13;4974711;28;20480;-43
2021/05/31 05:46:45;;;;;;;9.75;7.63;;;;;;;13.88;69.32;101484.94;4974093;28;20043;-42
2021/05/31 05:49:12;;;;;;;8.70;7.03;;;;;;;13.93;69.48;101473.56;4974612;28;20078;-45
2021/05/31 05:51:39;;;;;;;9.55;7.78;;;;;;;13.98;69.47;101480.88;4973871;28;20105;-42
2021/05/31 05:54:06;;;;;;;8.20;6.70;;;;;;;14.04;69.27;101476.69;4975084;28;20145;-43
2021/05/31 05:56:33;;;;;;;9.15;6.78;;;;;;;14.10;69.14;101477.25;4974398;28;20042;-45
2021/05/31 05:59:01;;;;;;;10.15;6.63;;;;;;;14.13;69.17;101469.03;4975106;28;20053;-44
2021/05/31 06:01:28;;;;;;;6.28;5.57;;;;;;;14.19;69.24;101475.16;4974685;28;20047;-50
2021/05/31 06:03:57;;;;;;;7.63;5.68;;;;;;;14.21;69.00;101472.84;4974552;28;20047;-44
2021/05/31 06:06:27;;;;;;;6.88;5.45;;;;;;;14.24;68.76;101480.50;4974579;28;20504;-46
2021/05/31 06:08:54;;;;;;;6.85;5.47;;;;;;;14.30;68.67;101477.09;4974585;28;20134;-44
2021/05/31 06:11:21;;;;;;;10.02;6.60;;;;;;;14.39;68.68;101488.13;4973637;28;20066;-44
2021/05/31 06:13:51;;;;;;;8.52;6.18;;;;;;;14.44;68.36;101485.91;4974550;28;20070;-42
2021/05/31 06:16:19;;;;;;;5.97;5.35;;;;;;;14.50;67.92;101472.53;4973912;28;20046;-44
2021/05/31 06:18:46;;;;;;;6.82;4.72;;;;;;;14.57;68.01;101472.75;4973513;28;20544;-43
2021/05/31 06:21:14;;;;;;;8.25;6.28;;;;;;;14.65;67.96;101477.34;4973136;28;20077;-44
2021/05/31 06:23:41;;;;;;;8.38;5.85;;;;;;;14.70;67.66;101479.06;4984576;28;20046;-44
2021/05/31 06:26:08;;;;;;;6.35;5.05;;;;;;;14.72;67.65;101480.34;4977648;28;20046;-43
2021/05/31 06:28:34;;;;;;;6.05;5.00;;;;;;;14.77;67.30;101477.31;4973346;28;20070;-42
2021/05/31 06:31:01;;;;;;;9.52;5.22;;;;;;;14.82;67.26;101474.28;4968732;28;20055;-46
2021/05/31 06:33:28;;;;;;;4.72;4.00;;;;;;;14.88;67.20;101483.19;4972390;28;20134;-45
2021/05/31 06:35:57;;;;;;;5.38;4.65;;;;;;;14.89;67.07;101480.03;4970637;28;20061;-47
2021/05/31 06:38:24;;;;;;;7.75;4.88;;;;;;;14.96;66.85;101485.78;4971162;28;20046;-43
2021/05/31 06:40:51;;;;;;;6.15;4.50;;;;;;;15.00;66.44;101483.94;4972041;28;20094;-45
2021/05/31 06:43:17;;;;;;;4.90;4.40;;;;;;;15.04;66.29;101481.22;4971594;28;20453;-44
2021/05/31 06:45:47;;;;;;;5.25;4.75;;;;;;;15.08;65.98;101474.59;4969440;28;20035;-46
2021/05/31 06:48:14;;;;;;;4.53;3.83;;;;;;;15.17;65.96;101477.19;4971620;28;20066;-45
2021/05/31 06:50:43;;;;;;;6.05;4.68;;;;;;;15.23;66.04;101472.97;4972545;28;20046;-44
2021/05/31 06:53:10;;;;;;;6.47;4.38;;;;;;;15.31;65.92;101474.78;4970115;28;20181;-43
2021/05/31 06:55:37;;;;;;;6.70;4.68;;;;;;;15.41;65.93;101479.03;4971243;28;20577;-45
2021/05/31 06:58:04;;;;;;;7.30;4.93;;;;;;;15.51;65.83;101479.31;4967276;28;20469;-43
2021/05/31 07:00:31;;;;;;;6.68;5.40;;;;;;;15.61;65.73;101466.78;4971743;28;20089;-46
2021/05/31 07:02:58;;;;;;;9.15;5.35;;;;;;;15.71;65.79;101469.03;4971087;28;20085;-48
2021/05/31 07:05:25;;;;;;;6.47;5.35;;;;;;;15.79;65.52;101463.25;4970994;28;20137;-40
2021/05/31 07:07:52;;;;;;;11.27;5.40;;;;;;;15.88;65.18;101457.47;4969557;28;20536;-48
2021/05/31 07:10:26;;;;;;;10.48;5.35;;;;;;;15.95;65.20;101466.00;4971310;28;20054;-44
2021/05/31 07:12:53;;;;;;;5.40;4.90;;;;;;;16.11;65.41;101452.00;4971769;28;20077;-45
2021/05/31 07:15:22;;;;;;;9.02;5.18;;;;;;;16.21;65.21;101449.44;4971432;28;20050;-45
2021/05/31 07:17:51;;;;;;;6.67;5.00;;;;;;;16.31;65.20;101459.22;4954582;28;20051;-46
2021/05/31 07:20:21;;;;;;;9.23;5.05;;;;;;;16.43;65.30;101454.31;4969889;28;20113;-50
2021/05/31 07:22:49;;;;;;;7.50;4.80;;;;;;;16.59;65.32;101456.25;4970407;28;20054;-55
2021/05/31 07:25:18;;;;;;;9.18;4.85;;;;;;;16.75;65.30;101465.34;4970580;28;20046;-50
2021/05/31 07:27:45;;;;;;;8.13;4.40;;;;;;;16.86;65.54;101458.00;4982305;28;20129;-48
2021/05/31 07:30:14;;;;;;;10.75;4.72;;;;;;;16.93;65.44;101449.72;4970335;28;20138;-46
2021/05/31 07:32:41;;;;;;;13.23;4.88;;;;;;;17.04;65.72;101450.72;4971305;28;20151;-46
2021/05/31 07:35:09;;;;;;;6.90;5.65;;;;;;;17.21;66.12;101455.03;4971575;28;20054;-44
2021/05/31 07:37:39;;;;;;;10.77;9.00;;;;;;;17.43;65.95;101445.81;4970688;28;20054;-50
2021/05/31 07:40:10;;;;;;;6.22;4.55;;;;;;;17.75;65.55;101447.16;4969796;28;20141;-47
2021/05/31 07:42:38;;;;;;;6.78;5.30;;;;;;;18.03;65.28;101453.19;4970641;28;20061;-45
2021/05/31 07:45:06;;;;;;;5.38;4.88;;;;;;;18.38;64.49;101452.84;4969723;28;20456;-46
2021/05/31 07:47:34;;;;;;;7.07;4.20;;;;;;;18.74;63.22;101459.75;4969901;28;20046;-46
2021/05/31 07:50:02;;;;;;;11.93;5.45;;;;;;;19.11;61.74;101459.75;4971154;28;20051;-45
2021/05/31 07:52:30;;;;;;;5.97;5.03;;;;;;;19.38;60.01;101449.97;4966701;28;20530;-49
2021/05/31 07:54:57;;;;;;;6.65;5.63;;;;;;;19.58;58.15;101451.38;4968658;28;20046;-46
2021/05/31 07:57:25;;;;;;;5.88;5.03;;;;;;;19.91;56.78;101442.78;4949828;28;20043;-52
2021/05/31 07:59:53;;;;;;;5.80;4.97;;;;;;;20.30;55.04;101439.41;4968440;28;20050;-43
2021/05/31 08:02:21;;;;;;;5.25;4.75;;;;;;;20.76;53.78;101437.56;4947995;28;20989;-46
2021/05/31 08:04:47;;;;;;;6.05;5.05;;;;;;;21.18;52.65;101436.91;4970433;28;20055;-45
2021/05/31 08:07:14;;;;;;;4.82;4.28;;;;;;;21.50;50.92;101434.88;4970040;28;20182;-45
2021/05/31 08:09:41;;;;;;;5.97;4.68;;;;;;;21.85;50.17;101434.03;4952088;28;20795;-47
2021/05/31 08:12:09;;;;;;;6.32;4.63;;;;;;;22.16;49.76;101432.41;4969631;28;20042;-49
2021/05/31 08:14:36;;;;;;;5.90;4.88;;;;;;;22.45;49.04;101434.69;4966311;28;20046;-50
2021/05/31 08:17:03;;;;;;;6.30;5.20;;;;;;;22.69;47.95;101435.03;4966008;28;20047;-46
2021/05/31 08:19:31;;;;;;;6.53;5.13;;;;;;;22.96;47.91;101430.41;4968497;28;20129;-48
2021/05/31 08:22:00;;;;;;;5.68;4.82;;;;;;;23.30;47.18;101433.44;4967725;28;20057;-45
2021/05/31 08:24:27;;;;;;;5.88;4.25;;;;;;;23.49;46.93;101418.75;4970252;28;20046;-45
2021/05/31 08:26:56;;;;;;;6.25;5.63;;;;;;;23.74;45.99;101424.97;4972037;28;20054;-44
2021/05/31 08:29:23;;;;;;;6.82;4.88;;;;;;;24.07;45.33;101423.41;4969530;28;20038;-47
2021/05/31 08:31:50;;;;;;;8.13;4.85;;;;;;;24.32;44.36;101418.31;4969142;28;20054;-47
2021/05/31 08:34:18;;;;;;;7.93;6.20;;;;;;;24.47;43.90;101422.56;4968950;28;20058;-46
2021/05/31 08:36:45;;;;;;;7.63;5.97;;;;;;;24.58;43.51;101428.09;4968523;28;20548;-45
2021/05/31 08:39:12;;;;;;;8.32;6.10;;;;;;;24.38;42.92;101413.78;4969262;28;20527;-46
2021/05/31 08:41:42;;;;;;;8.15;5.47;;;;;;;24.13;43.31;101413.28;4969281;28;20053;-45
2021/05/31 08:44:09;;;;;;;7.07;5.80;;;;;;;23.95;43.46;101409.81;4968756;28;20050;-44
2021/05/31 08:46:37;;;;;;;9.13;6.55;;;;;;;23.76;43.52;101410.41;4968320;28;20820;-45
2021/05/31 08:49:06;;;;;;;8.75;6.22;;;;;;;23.68;43.82;101414.53;4947218;28;20047;-46
2021/05/31 08:51:34;;;;;;;9.10;7.22;;;;;;;23.65;43.52;101410.53;4959684;28;20154;-48
2021/05/31 08:54:01;;;;;;;7.32;6.63;;;;;;;23.83;43.59;101399.06;4968708;28;20493;-43
2021/05/31 08:56:49;;;;;;;8.35;6.80;;;;;;;24.02;43.56;101404.06;4969419;28;20109;-44
2021/05/31 08:59:29;;;;;;;11.27;7.25;;;;;;;24.12;43.64;101389.84;4968510;28;20042;-49
2021/05/31 09:01:56;;;;;;;9.93;7.10;;;;;;;24.19;43.18;101386.94;4967829;28;20119;-47
2021/05/31 09:04:24;;;;;;;10.07;7.10;;;;;;;24.30;43.34;101391.66;4969519;28;20834;-46
2021/05/31 09:06:55;;;;;;;11.40;7.55;;;;;;;24.40;42.97;101383.03;4950927;28;20133;-45
2021/05/31 09:09:41;;;;;;;;;;;;;;;24.42;42.75;101386.22;4952134;28;20090;-44
2021/05/31 09:12:10;;;;;;;9.50;7.38;;;;;;;24.61;43.42;101382.75;4969512;28;19929;-46
2021/05/31 09:14:38;;;;;;;14.70;7.63;;;;;;;24.58;43.11;101386.41;4969483;28;20054;-47
2021/05/31 09:17:05;;;;;;;10.40;8.52;;;;;;;24.55;42.63;101384.44;4968933;28;20051;-51
2021/05/31 09:19:33;;;;;;;12.68;8.55;;;;;;;24.59;42.48;101378.72;4968399;28;20039;-44
2021/05/31 09:22:04;;;;;;;8.63;7.72;;;;;;;24.52;42.40;101379.63;4972300;28;20061;-46
2021/05/31 09:24:31;;;;;;;;;;;;;;;24.43;42.76;101364.38;4975111;28;20047;-44
2021/05/31 09:27:01;;;;;;;8.98;6.90;;;;;;;24.42;43.21;101368.44;4971169;28;19961;-47
2021/05/31 09:29:29;;;;;;;9.45;8.25;;;;;;;24.41;42.78;101373.28;4967403;28;20052;-46
2021/05/31 09:32:01;;;;;;;8.07;7.13;;;;;;;24.37;42.18;101381.03;4969280;28;20051;-44
2021/05/31 09:34:29;;;;;;;17.65;9.15;;;;;;;24.39;42.46;101363.63;4969572;28;20838;-44
2021/05/31 09:36:59;;;;;;;11.43;8.38;;;;;;;24.30;42.48;101361.34;4941161;23;20385;-46
2021/05/31 09:39:28;;;;;;;10.63;7.82;;;;;;;24.25;42.68;101370.28;4966656;28;20051;-43
2021/05/31 09:42:11;;;;;;;9.35;7.63;;;;;;;24.39;42.99;101358.78;4965673;28;20147;-44
2021/05/31 09:44:41;;;;;;;9.18;7.50;;;;;;;24.56;43.05;101352.06;4960429;28;20130;-44
2021/05/31 09:47:08;;;;;;;10.90;7.65;;;;;;;24.49;43.01;101357.81;4957965;28;20051;-45
2021/05/31 09:49:37;;;;;;;8.68;6.68;;;;;;;24.56;43.38;101354.09;4963697;28;20057;-48
2021/05/31 09:52:14;;;;;;;8.30;7.50;;;;;;;24.71;43.22;101347.78;4969324;28;20424;-44
2021/05/31 09:54:45;;;;;;;9.67;7.13;;;;;;;24.51;43.07;101341.22;4958956;28;20043;-44
2021/05/31 09:57:16;;;;;;;9.35;8.35;;;;;;;24.42;42.96;101351.44;4967004;28;20097;-46
2021/05/31 09:59:45;;;;;;;9.85;7.40;;;;;;;24.11;43.47;101340.16;4965470;28;20047;-47
2021/05/31 10:02:16;;;;;;;10.35;6.55;;;;;;;23.99;44.04;101348.34;4965193;28;20074;-45
2021/05/31 10:07:26;;;;;;;11.23;8.38;;;;;;;23.87;43.82;101343.25;4970743;28;20041;-45
2021/05/31 10:09:53;;;;;;;8.98;8.07;;;;;;;23.48;44.17;101341.63;4971611;28;20043;-45
2021/05/31 10:12:20;;;;;;;10.88;7.63;;;;;;;23.60;44.41;101343.13;4959217;28;20051;-49
2021/05/31 10:14:49;;;;;;;9.80;7.35;;;;;;;23.64;44.37;101341.09;4969539;28;20499;-47
2021/05/31 10:17:16;;;;;;;11.38;7.95;;;;;;;23.66;44.42;101335.00;4970286;28;20467;-47
2021/05/31 10:19:44;;;;;;;12.27;7.38;;;;;;;23.69;44.72;101328.50;4967475;28;20843;-45
2021/05/31 10:22:11;;;;;;;10.18;7.28;;;;;;;23.71;44.92;101334.53;4967975;28;20523;-46
2021/05/31 10:24:39;;;;;;;10.20;7.18;;;;;;;23.62;45.02;101327.34;4973174;28;20046;-46
2021/05/31 10:27:09;;;;;;;10.77;7.25;;;;;;;23.63;45.17;101328.97;4963785;28;20057;-46
2021/05/31 10:29:39;;;;;;;8.82;7.35;;;;;;;23.37;45.56;101328.84;4968721;28;20125;-48
2021/05/31 10:32:08;;;;;;;10.75;7.68;;;;;;;23.22;45.38;101318.88;4967614;28;20050;-45
2021/05/31 10:34:51;;;;;;;11.20;7.30;;;;;;;23.12;46.02;101303.59;4972852;28;20444;-44
2021/05/31 10:37:27;;;;;;;8.18;6.65;;;;;;;23.01;46.28;101308.53;4973337;28;20573;-47
2021/05/31 10:40:05;;;;;;;9.38;7.10;;;;;;;22.90;46.65;101305.03;4973296;28;20496;-44
2021/05/31 10:42:55;;;;;;;15.82;6.93;;;;;;;22.98;47.26;101309.41;4973317;28;20142;-45
2021/05/31 10:45:25;;;;;;;12.30;6.28;;;;;;;22.75;47.50;101312.78;4973512;28;20046;-47
2021/05/31 10:48:09;;;;;;;8.30;7.00;;;;;;;22.56;47.92;101304.03;4969385;28;20571;-45
2021/05/31 10:51:00;;;;;;;13.68;6.25;;;;;;;22.48;48.19;101308.91;4972893;28;20563;-44
2021/05/31 10:53:32;;;;;;;16.45;7.50;;;;;;;22.41;48.04;101306.13;4973934;28;20074;-48
2021/05/31 10:56:11;;;;;;;10.55;6.57;;;;;;;22.41;48.60;101298.47;4973167;28;20050;-46
2021/05/31 10:58:47;;;;;;;9.20;6.35;;;;;;;22.11;48.68;101294.59;4972884;28;20473;-43
2021/05/31 11:01:18;;;;;;;10.77;6.40;;;;;;;21.82;49.15;101296.72;4973172;28;20129;-45
2021/05/31 11:04:03;;;;;;;10.02;6.07;;;;;;;21.59;50.24;101296.41;4972957;28;20043;-44
2021/05/31 11:06:35;;;;;;;9.23;6.07;;;;;;;21.40;50.52;101288.38;4971769;28;20047;-45
2021/05/31 11:09:19;;;;;;;11.60;6.40;;;;;;;21.37;51.70;101277.94;4972822;28;20042;-47
2021/05/31 11:11:48;;;;;;;10.35;6.47;;;;;;;21.43;50.89;101273.50;4965795;28;20070;-44
2021/05/31 11:14:45;;;;;;;12.15;6.63;;;;;;;21.59;51.41;101273.84;4970175;28;20062;-50
2021/05/31 11:17:16;;;;;;;6.57;5.15;;;;;;;21.61;50.76;101271.44;4962797;28;20145;-44
2021/05/31 11:19:43;;;;;;;6.32;5.03;;;;;;;21.59;50.89;101263.41;4971891;28;20043;-45
2021/05/31 11:22:24;;;;;;;8.82;4.60;;;;;;;21.48;51.04;101253.34;4977567;28;20567;-46
2021/05/31 11:25:07;;;;;;;8.50;4.93;;;;;;;21.41;51.18;101256.19;4949239;28;20808;-43
2021/05/31 11:27:41;;;;;;;7.28;4.47;;;;;;;21.44;52.17;101256.19;4962745;28;20130;-44
2021/05/31 11:30:10;;;;;;;;;;;;;;;21.53;51.85;101258.56;4978994;28;20081;-44
2021/05/31 11:32:37;;;;;;;7.78;3.88;;;;;;;21.65;51.21;101260.97;4973195;28;19968;-45
2021/05/31 11:35:12;;;;;;;5.60;3.60;;;;;;;21.75;50.88;101255.28;4972094;28;20035;-44
2021/05/31 11:37:59;;;;;;;10.80;4.10;;;;;;;21.63;51.23;101246.47;4962737;28;20055;-43
2021/05/31 11:40:32;;;;;;;7.18;4.00;;;;;;;21.53;50.73;101259.38;4972415;28;20102;-43
2021/05/31 11:43:02;;;;;;;5.47;4.32;;;;;;;21.54;50.39;101254.56;4966650;28;20050;-45
2021/05/31 11:45:33;;;;;;;5.78;3.40;;;;;;;21.51;50.51;101253.34;4971413;28;20877;-46
2021/05/31 11:48:06;;;;;;;6.60;3.97;;;;;;;21.55;50.58;101250.53;4973018;28;20122;-43
2021/05/31 11:50:40;;;;;;;4.65;3.92;;;;;;;21.75;50.26;101254.47;4966060;28;20441;-49